Time;durP1;ratioP1;P1;durP2;ratioP2;P2;SDS_P1;SDS_P2;PMS_P1;PMS_P2;Temp;Humidity;BMP_temperature;BMP_pressure;BME280_temperature;BME280_humidity;BME280_pressure;Samples;Min_cycle;Max_cycle;Signal;HPM_P1;HPM_P2
2023/06/06 00:01:18;;;;;;;;;;;;;;;16.04;100.00;95511.84;5140726;27;1044;-52
2023/06/06 00:03:45;;;;;;;;;;;;;;;15.84;100.00;95510.72;5140423;27;968;-51
2023/06/06 00:06:12;;;;;;;;;;;;;;;15.61;100.00;95512.44;5140151;27;1083;-52
2023/06/06 00:08:41;;;;;;;;;;;;;;;15.55;100.00;95518.53;5140512;27;1541;-51
2023/06/06 00:11:07;;;;;;;;;;;;;;;15.70;100.00;95510.47;5138605;27;1706;-51
2023/06/06 00:13:34;;;;;;;;;;;;;;;15.71;100.00;95514.88;5137075;27;969;-51
2023/06/06 00:16:01;;;;;;;;;;;;;;;15.65;100.00;95510.22;5137046;27;1917;-51
2023/06/06 00:18:27;;;;;;;;;;;;;;;15.70;100.00;95507.78;5137386;27;1024;-51
2023/06/06 00:20:54;;;;;;;;;;;;;;;15.68;100.00;95499.03;5137197;27;993;-52
2023/06/06 00:23:21;;;;;;;;;;;;;;;15.65;100.00;95502.13;5136985;27;1127;-52
2023/06/06 00:25:49;;;;;;;;;;;;;;;15.67;100.00;95500.09;5136985;27;1072;-52
2023/06/06 00:28:15;;;;;;;;;;;;;;;15.68;100.00;95501.75;5136905;27;981;-51
2023/06/06 00:30:41;;;;;;;;;;;;;;;15.66;100.00;95501.09;5137204;27;1063;-52
2023/06/06 00:33:07;;;;;;;;;;;;;;;15.55;100.00;95493.44;5137100;27;1016;-51
2023/06/06 00:35:33;;;;;;;;;;;;;;;15.36;100.00;95490.25;5136517;27;1905;-52
2023/06/06 00:38:00;;;;;;;;;;;;;;;15.46;100.00;95497.25;5136906;27;957;-51
2023/06/06 00:40:26;;;;;;;;;;;;;;;15.54;100.00;95505.28;5118463;27;1037;-51
2023/06/06 00:42:52;;;;;;;;;;;;;;;15.31;100.00;95510.69;5134816;27;2725;-51
2023/06/06 00:45:18;;;;;;;;;;;;;;;15.09;100.00;95512.38;5136343;27;1019;-51
2023/06/06 00:47:45;;;;;;;;;;;;;;;15.21;100.00;95509.09;5136704;27;1290;-51
2023/06/06 00:50:12;;;;;;;;;;;;;;;15.14;100.00;95504.59;5136725;27;1047;-51
2023/06/06 00:52:39;;;;;;;;;;;;;;;15.08;100.00;95506.19;5136722;27;1055;-52
2023/06/06 00:55:07;;;;;;;;;;;;;;;15.31;100.00;95500.75;5136686;27;2015;-52
2023/06/06 00:57:35;;;;;;;;;;;;;;;15.49;100.00;95507.66;5136330;27;1046;-52
2023/06/06 01:00:05;;;;;;;;;;;;;;;15.37;100.00;95512.66;5136337;27;1016;-52
2023/06/06 01:02:37;;;;;;;;;;;;;;;15.20;100.00;95511.97;5136209;27;1104;-52
2023/06/06 01:05:09;;;;;;;;;;;;;;;15.09;100.00;95515.91;5136310;27;1197;-52
2023/06/06 01:07:37;;;;;;;;;;;;;;;15.26;100.00;95505.00;5136178;27;1599;-52
2023/06/06 01:10:04;;;;;;;;;;;;;;;15.31;100.00;95510.69;5136036;27;1222;-52
2023/06/06 01:12:29;;;;;;;;;;;;;;;15.32;100.00;95505.13;5136233;27;1043;-52
2023/06/06 01:15:01;;;;;;;;;;;;;;;15.32;100.00;95506.97;5136382;27;1039;-52
2023/06/06 01:17:28;;;;;;;;;;;;;;;15.33;100.00;95506.81;5136208;27;1031;-52
2023/06/06 01:19:56;;;;;;;;;;;;;;;15.38;100.00;95501.69;5136171;27;1016;-52
2023/06/06 01:22:22;;;;;;;;;;;;;;;15.34;100.00;95511.16;5135803;27;974;-52
2023/06/06 01:24:52;;;;;;;;;;;;;;;15.23;100.00;95511.59;5136122;27;1025;-52
2023/06/06 01:27:19;;;;;;;;;;;;;;;15.07;100.00;95509.03;5135562;27;1096;-52
2023/06/06 01:29:45;;;;;;;;;;;;;;;15.04;100.00;95499.44;5134995;27;2578;-52
2023/06/06 01:32:30;;;;;;;;;;;;;;;15.21;100.00;95501.00;5121526;27;2836;-52
2023/06/06 01:35:02;;;;;;;;;;;;;;;15.27;100.00;95510.22;5115328;28;1053;-52
2023/06/06 01:37:38;;;;;;;;;;;;;;;15.13;100.00;95508.31;5114953;28;1065;-51
2023/06/06 01:40:08;;;;;;;;;;;;;;;15.05;100.00;95505.69;5115415;28;957;-51
2023/06/06 01:42:37;;;;;;;;;;;;;;;14.99;100.00;95502.69;5114904;28;1132;-51
2023/06/06 01:45:06;;;;;;;;;;;;;;;14.99;100.00;95508.09;5114784;28;1091;-52
2023/06/06 01:47:33;;;;;;;;;;;;;;;15.14;100.00;95507.28;5128064;27;1203;-51
2023/06/06 01:49:59;;;;;;;;;;;;;;;15.09;100.00;95509.69;5135381;27;1060;-51
2023/06/06 01:52:28;;;;;;;;;;;;;;;15.05;100.00;95508.38;5135166;27;1886;-52
2023/06/06 01:54:55;;;;;;;;;;;;;;;15.05;100.00;95506.53;5135589;27;980;-52
2023/06/06 01:57:21;;;;;;;;;;;;;;;15.08;100.00;95508.00;5135164;27;1906;-51
2023/06/06 01:59:47;;;;;;;;;;;;;;;14.99;100.00;95512.63;5135099;27;1040;-51
2023/06/06 02:02:14;;;;;;;;;;;;;;;14.98;100.00;95511.78;5135108;27;992;-52
2023/06/06 02:04:41;;;;;;;;;;;;;;;15.16;100.00;95516.03;5135094;27;1095;-51
2023/06/06 02:07:08;;;;;;;;;;;;;;;14.99;100.00;95518.84;5116657;27;1274;-52
2023/06/06 02:09:34;;;;;;;;;;;;;;;14.91;100.00;95527.00;5135012;27;1577;-52
2023/06/06 02:12:00;;;;;;;;;;;;;;;14.94;100.00;95521.22;5135230;27;1000;-52
2023/06/06 02:14:26;;;;;;;;;;;;;;;14.90;100.00;95519.91;5134730;27;1111;-51
2023/06/06 02:16:52;;;;;;;;;;;;;;;14.88;100.00;95530.03;5134872;27;2066;-52
2023/06/06 02:19:18;;;;;;;;;;;;;;;14.83;100.00;95524.34;5134670;27;1962;-52
2023/06/06 02:21:44;;;;;;;;;;;;;;;14.84;100.00;95531.41;5134926;27;965;-52
2023/06/06 02:24:10;;;;;;;;;;;;;;;14.74;100.00;95536.16;5134673;27;1049;-52
2023/06/06 02:26:36;;;;;;;;;;;;;;;14.54;100.00;95536.59;5135015;27;1052;-52
2023/06/06 02:29:03;;;;;;;;;;;;;;;14.32;100.00;95542.75;5134514;27;1097;-52
2023/06/06 02:31:29;;;;;;;;;;;;;;;14.30;100.00;95540.22;5134826;27;1036;-52
2023/06/06 02:33:55;;;;;;;;;;;;;;;14.35;100.00;95531.66;5133374;27;2294;-52
2023/06/06 02:36:21;;;;;;;;;;;;;;;14.57;100.00;95541.66;5113563;28;2887;-52
2023/06/06 02:38:46;;;;;;;;;;;;;;;14.71;100.00;95542.75;5114251;28;1204;-52
2023/06/06 02:41:12;;;;;;;;;;;;;;;14.74;100.00;95538.84;5113882;28;1056;-52
2023/06/06 02:43:40;;;;;;;;;;;;;;;14.54;100.00;95546.53;5114109;28;1154;-51
2023/06/06 02:46:07;;;;;;;;;;;;;;;14.53;100.00;95539.44;5114866;28;1711;-51
2023/06/06 02:48:33;;;;;;;;;;;;;;;14.58;100.00;95540.63;5134401;27;1226;-51
2023/06/06 02:50:59;;;;;;;;;;;;;;;14.69;100.00;95549.34;5134543;27;1000;-51
2023/06/06 02:53:27;;;;;;;;;;;;;;;14.48;100.00;95560.69;5134523;27;1031;-51
2023/06/06 02:55:53;;;;;;;;;;;;;;;14.26;100.00;95555.03;5134251;27;2001;-51
2023/06/06 02:58:27;;;;;;;;;;;;;;;14.38;100.00;95550.09;5134189;28;1021;-51
2023/06/06 03:00:54;;;;;;;;;;;;;;;14.50;100.00;95545.19;5134386;28;1089;-51
2023/06/06 03:03:21;;;;;;;;;;;;;;;14.35;100.00;95550.47;5134062;28;1108;-51
2023/06/06 03:05:51;;;;;;;;;;;;;;;14.34;100.00;95546.09;5134047;28;1123;-52
2023/06/06 03:08:21;;;;;;;;;;;;;;;14.62;100.00;95550.03;5134270;28;1331;-51
2023/06/06 03:10:47;;;;;;;;;;;;;;;14.71;100.00;95547.31;5134121;28;1064;-51
2023/06/06 03:13:13;;;;;;;;;;;;;;;14.71;100.00;95566.16;5134076;28;1031;-51
2023/06/06 03:15:46;;;;;;;;;;;;;;;14.68;100.00;95563.78;5134045;28;1986;-51
2023/06/06 03:18:16;;;;;;;;;;;;;;;14.67;100.00;95568.34;5133895;28;1132;-52
2023/06/06 03:20:46;;;;;;;;;;;;;;;14.76;100.00;95566.44;5134018;28;1084;-51
2023/06/06 03:23:12;;;;;;;;;;;;;;;14.76;100.00;95569.97;5134037;28;1275;-51
2023/06/06 03:25:43;;;;;;;;;;;;;;;14.61;100.00;95574.44;5134174;28;1053;-51
2023/06/06 03:28:09;;;;;;;;;;;;;;;14.61;100.00;95572.59;5134127;28;977;-51
2023/06/06 03:30:36;;;;;;;;;;;;;;;14.78;100.00;95575.19;5133938;28;1032;-51
2023/06/06 03:33:03;;;;;;;;;;;;;;;14.99;100.00;95561.94;5133822;28;1033;-52
2023/06/06 03:35:31;;;;;;;;;;;;;;;15.20;100.00;95565.84;5133683;28;1925;-51
2023/06/06 03:37:57;;;;;;;;;;;;;;;15.37;100.00;95564.69;5115590;28;1108;-51
2023/06/06 03:40:24;;;;;;;;;;;;;;;15.48;100.00;95566.13;5134067;28;981;-51
2023/06/06 03:42:50;;;;;;;;;;;;;;;15.63;100.00;95566.13;5134157;28;1097;-51
2023/06/06 03:45:16;;;;;;;;;;;;;;;15.54;100.00;95569.94;5133566;27;1100;-51
2023/06/06 03:47:42;;;;;;;;;;;;;;;15.55;100.00;95567.03;5136320;27;1289;-52
2023/06/06 03:50:08;;;;;;;;;;;;;;;15.61;100.00;95571.72;5137806;27;1012;-52
2023/06/06 03:52:34;;;;;;;;;;;;;;;15.61;100.00;95571.72;5137749;27;1060;-52
2023/06/06 03:55:01;;;;;;;;;;;;;;;15.66;100.00;95579.25;5137896;27;1009;-52
2023/06/06 03:57:27;;;;;;;;;;;;;;;15.75;100.00;95577.38;5137492;27;1909;-52
2023/06/06 03:59:53;;;;;;;;;;;;;;;15.79;100.00;95578.69;5137789;27;1097;-52
2023/06/06 04:02:19;;;;;;;;;;;;;;;15.88;100.00;95582.13;5137719;27;1012;-52
2023/06/06 04:04:45;;;;;;;;;;;;;;;15.98;100.00;95580.00;5137563;27;1017;-52
2023/06/06 04:07:43;;;;;;;;;;;;;;;16.10;100.00;95578.50;5112354;28;1131;-53
2023/06/06 04:10:10;;;;;;;;;;;;;;;16.12;100.00;95576.47;5116762;28;1048;-51
2023/06/06 04:12:36;;;;;;;;;;;;;;;16.06;100.00;95566.44;5116648;28;1008;-52
2023/06/06 04:15:02;;;;;;;;;;;;;;;16.08;100.00;95566.25;5116670;28;1108;-51
2023/06/06 04:17:28;;;;;;;;;;;;;;;16.07;100.00;95570.81;5121231;27;2424;-53
2023/06/06 04:19:55;;;;;;;;;;;;;;;16.27;100.00;95567.56;5116441;28;1029;-52
2023/06/06 04:22:22;;;;;;;;;;;;;;;16.32;100.00;95574.06;5116454;28;984;-52
2023/06/06 04:24:48;;;;;;;;;;;;;;;16.45;100.00;95570.72;5116306;28;1097;-52
2023/06/06 04:27:16;;;;;;;;;;;;;;;16.62;100.00;95573.19;5116569;28;1012;-52
2023/06/06 04:29:42;;;;;;;;;;;;;;;16.56;100.00;95570.25;5116715;28;1147;-52
2023/06/06 04:32:08;;;;;;;;;;;;;;;16.48;100.00;95562.22;5116500;28;965;-52
2023/06/06 04:34:39;;;;;;;;;;;;;;;16.46;100.00;95569.69;5116315;28;1067;-52
2023/06/06 04:37:06;;;;;;;;;;;;;;;16.58;100.00;95564.66;5116236;28;1901;-51
2023/06/06 04:39:33;;;;;;;;;;;;;;;16.69;100.00;95569.56;5116001;28;1896;-52
2023/06/06 04:42:05;;;;;;;;;;;;;;;16.75;100.00;95568.81;5116389;28;960;-52
2023/06/06 04:44:41;;;;;;;;;;;;;;;16.52;100.00;95571.66;5116286;28;1048;-52
2023/06/06 04:47:08;;;;;;;;;;;;;;;16.51;100.00;95571.84;5125759;27;1247;-51
2023/06/06 04:49:39;;;;;;;;;;;;;;;16.58;100.00;95568.19;5136498;27;1863;-51
2023/06/06 04:52:06;;;;;;;;;;;;;;;16.59;100.00;95575.25;5136488;27;1023;-52
2023/06/06 04:54:33;;;;;;;;;;;;;;;16.71;100.00;95569.38;5136663;27;969;-52
2023/06/06 04:57:00;;;;;;;;;;;;;;;16.95;100.00;95571.75;5136076;27;1988;-51
2023/06/06 04:59:27;;;;;;;;;;;;;;;17.14;100.00;95574.88;5136195;27;1040;-52
2023/06/06 05:01:55;;;;;;;;;;;;;;;17.34;100.00;95570.53;5136177;27;1056;-52
2023/06/06 05:04:22;;;;;;;;;;;;;;;17.26;100.00;95572.50;5136422;27;1021;-52
2023/06/06 05:06:50;;;;;;;;;;;;;;;17.07;100.00;95569.41;5136115;27;1128;-52
2023/06/06 05:09:16;;;;;;;;;;;;;;;17.17;100.00;95580.75;5128919;27;1605;-52
2023/06/06 05:11:46;;;;;;;;;;;;;;;17.26;100.00;95583.31;5136329;27;1048;-52
2023/06/06 05:14:12;;;;;;;;;;;;;;;17.30;100.00;95576.50;5136220;27;960;-52
2023/06/06 05:16:38;;;;;;;;;;;;;;;17.36;100.00;95571.16;5136107;27;1986;-52
2023/06/06 05:19:04;;;;;;;;;;;;;;;17.54;100.00;95567.16;5135959;27;1053;-52
2023/06/06 05:21:33;;;;;;;;;;;;;;;17.46;100.00;95564.59;5135771;27;961;-52
2023/06/06 05:23:59;;;;;;;;;;;;;;;17.39;100.00;95569.09;5135835;27;1108;-52
2023/06/06 05:26:25;;;;;;;;;;;;;;;17.48;100.00;95567.94;5135910;27;1012;-51
2023/06/06 05:28:51;;;;;;;;;;;;;;;17.74;100.00;95573.59;5135750;27;1060;-51
2023/06/06 05:31:20;;;;;;;;;;;;;;;17.71;100.00;95562.31;5135882;27;1060;-52
2023/06/06 05:33:46;;;;;;;;;;;;;;;17.83;100.00;95565.31;5135610;27;1045;-52
2023/06/06 05:36:13;;;;;;;;;;;;;;;17.82;100.00;95569.91;5135501;27;1917;-52
2023/06/06 05:38:39;;;;;;;;;;;;;;;17.87;100.00;95564.78;5135546;27;1021;-52
2023/06/06 05:41:05;;;;;;;;;;;;;;;18.04;100.00;95569.88;5135793;27;941;-52
2023/06/06 05:43:33;;;;;;;;;;;;;;;18.14;98.67;95568.50;5135575;27;969;-52
2023/06/06 05:46:00;;;;;;;;;;;;;;;18.23;100.00;95577.31;5135218;27;1435;-52
2023/06/06 05:48:26;;;;;;;;;;;;;;;18.39;100.00;95588.84;5135322;27;1277;-52
2023/06/06 05:50:52;;;;;;;;;;;;;;;18.45;100.00;95588.06;5135617;27;981;-52
2023/06/06 05:53:18;;;;;;;;;;;;;;;18.60;98.23;95586.03;5135511;27;966;-52
2023/06/06 05:55:44;;;;;;;;;;;;;;;18.64;98.27;95584.59;5135102;27;1933;-52
2023/06/06 05:58:10;;;;;;;;;;;;;;;19.05;95.64;95582.94;5135382;27;1016;-51
2023/06/06 06:00:36;;;;;;;;;;;;;;;19.11;96.84;95579.41;5135047;27;1989;-51
2023/06/06 06:03:03;;;;;;;;;;;;;;;19.19;96.99;95575.69;5135101;27;1638;-52
2023/06/06 06:05:29;;;;;;;;;;;;;;;19.17;95.86;95566.94;5135275;27;1070;-51
2023/06/06 06:07:59;;;;;;;;;;;;;;;19.17;96.66;95567.75;5134923;27;1935;-51
2023/06/06 06:10:25;;;;;;;;;;;;;;;19.26;94.15;95569.22;5133921;27;1111;-51
2023/06/06 06:12:52;;;;;;;;;;;;;;;19.49;94.72;95563.44;5134841;27;1108;-51
2023/06/06 06:15:18;;;;;;;;;;;;;;;19.87;92.28;95570.16;5134780;27;1992;-51
2023/06/06 06:17:44;;;;;;;;;;;;;;;19.85;93.87;95566.84;5135066;27;981;-51
2023/06/06 06:20:10;;;;;;;;;;;;;;;19.69;92.66;95568.88;5135032;27;1090;-51
2023/06/06 06:22:37;;;;;;;;;;;;;;;19.53;93.31;95561.16;5135044;27;1039;-51
2023/06/06 06:25:04;;;;;;;;;;;;;;;19.75;94.66;95569.97;5134722;27;1095;-51
2023/06/06 06:27:30;;;;;;;;;;;;;;;19.79;93.02;95568.50;5133774;27;2353;-51
2023/06/06 06:29:57;;;;;;;;;;;;;;;19.93;91.37;95566.63;5116716;27;2903;-51
2023/06/06 06:32:23;;;;;;;;;;;;;;;20.24;88.64;95575.97;5114217;28;1049;-51
2023/06/06 06:34:49;;;;;;;;;;;;;;;20.27;86.97;95570.97;5114335;28;977;-51
2023/06/06 06:37:18;;;;;;;;;;;;;;;20.09;89.54;95574.34;5113868;28;1996;-51
2023/06/06 06:39:45;;;;;;;;;;;;;;;20.22;89.69;95580.78;5114092;28;961;-51
2023/06/06 06:42:11;;;;;;;;;;;;;;;20.44;90.31;95581.38;5114215;28;1034;-51
2023/06/06 06:44:37;;;;;;;;;;;;;;;20.36;85.18;95582.44;5113868;28;1107;-51
2023/06/06 06:47:03;;;;;;;;;;;;;;;20.44;87.55;95575.94;5122349;27;1247;-51
2023/06/06 06:49:31;;;;;;;;;;;;;;;20.39;89.07;95575.75;5134283;27;1119;-51
2023/06/06 06:51:57;;;;;;;;;;;;;;;20.63;87.89;95577.81;5134711;27;1126;-51
2023/06/06 06:54:26;;;;;;;;;;;;;;;20.83;88.40;95575.03;5134574;27;1220;-51
2023/06/06 06:56:53;;;;;;;;;;;;;;;21.20;84.89;95580.72;5134546;27;1910;-51
2023/06/06 06:59:23;;;;;;;;;;;;;;;21.26;73.30;95577.09;5133769;27;1041;-51
2023/06/06 07:01:49;;;;;;;;;;;;;;;21.55;82.24;95568.59;5134090;28;1059;-51
2023/06/06 07:04:19;;;;;;;;;;;;;;;21.80;80.90;95569.47;5116193;28;1044;-51
2023/06/06 07:06:46;;;;;;;;;;;;;;;21.93;82.33;95565.81;5134016;28;1868;-51
2023/06/06 07:09:13;;;;;;;;;;;;;;;22.02;77.59;95566.38;5133736;28;1660;-51
2023/06/06 07:11:39;;;;;;;;;;;;;;;22.00;77.37;95565.75;5134411;28;1076;-51
2023/06/06 07:14:05;;;;;;;;;;;;;;;22.40;77.98;95569.00;5134107;28;1520;-51
2023/06/06 07:16:34;;;;;;;;;;;;;;;22.35;72.56;95566.09;5115726;28;1906;-52
2023/06/06 07:19:00;;;;;;;;;;;;;;;22.40;70.93;95571.72;5134249;28;1028;-52
2023/06/06 07:21:26;;;;;;;;;;;;;;;22.51;70.98;95572.03;5136034;27;1048;-53
2023/06/06 07:23:52;;;;;;;;;;;;;;;22.59;72.18;95572.56;5138507;27;1048;-53
2023/06/06 07:26:19;;;;;;;;;;;;;;;22.78;66.15;95576.13;5138085;27;1069;-52
2023/06/06 07:28:46;;;;;;;;;;;;;;;22.99;63.64;95568.53;5138080;27;1064;-52
2023/06/06 07:31:16;;;;;;;;;;;;;;;23.17;70.05;95563.06;5138221;27;1058;-52
2023/06/06 07:33:42;;;;;;;;;;;;;;;22.86;66.19;95565.94;5137887;27;1037;-52
2023/06/06 07:36:08;;;;;;;;;;;;;;;23.19;68.59;95560.13;5136813;27;2801;-52
2023/06/06 07:38:34;;;;;;;;;;;;;;;23.14;66.88;95555.34;5137178;27;2973;-52
2023/06/06 07:41:00;;;;;;;;;;;;;;;23.21;70.36;95557.19;5137911;27;910;-52
2023/06/06 07:43:26;;;;;;;;;;;;;;;23.31;67.42;95558.25;5137775;27;925;-52
2023/06/06 07:45:52;;;;;;;;;;;;;;;23.37;67.44;95551.91;5137759;27;1958;-52
2023/06/06 07:48:19;;;;;;;;;;;;;;;23.24;65.26;95545.78;5137819;27;1490;-52
2023/06/06 07:50:45;;;;;;;;;;;;;;;23.30;65.78;95548.44;5137906;27;953;-52
2023/06/06 07:53:11;;;;;;;;;;;;;;;23.55;68.03;95548.28;5119519;27;984;-52
2023/06/06 07:55:37;;;;;;;;;;;;;;;23.56;67.51;95535.44;5137511;27;1986;-52
2023/06/06 07:58:10;;;;;;;;;;;;;;;23.34;66.82;95544.19;5137619;27;957;-52
2023/06/06 08:00:36;;;;;;;;;;;;;;;23.47;67.90;95539.59;5137838;27;1004;-52
2023/06/06 08:03:02;;;;;;;;;;;;;;;23.49;68.19;95537.47;5137822;27;1028;-52
2023/06/06 08:05:28;;;;;;;;;;;;;;;23.66;68.48;95529.44;5137389;27;1088;-52
2023/06/06 08:07:54;;;;;;;;;;;;;;;23.85;67.03;95524.75;5137122;27;1536;-52
2023/06/06 08:10:20;;;;;;;;;;;;;;;23.68;68.73;95521.84;5137118;27;1245;-52
2023/06/06 08:12:46;;;;;;;;;;;;;;;23.96;69.50;95526.69;5137679;27;1059;-52
2023/06/06 08:15:13;;;;;;;;;;;;;;;23.82;70.03;95526.06;5137515;27;1035;-52
2023/06/06 08:17:39;;;;;;;;;;;;;;;23.90;69.65;95531.19;5137329;27;1992;-51
2023/06/06 08:20:08;;;;;;;;;;;;;;;24.06;67.34;95528.81;5137130;27;1119;-51
2023/06/06 08:22:37;;;;;;;;;;;;;;;24.10;68.90;95524.53;5137092;27;1031;-51
2023/06/06 08:25:07;;;;;;;;;;;;;;;24.07;69.55;95523.09;5137043;27;976;-52
2023/06/06 08:27:34;;;;;;;;;;;;;;;24.28;67.75;95526.31;5136796;27;1021;-52
2023/06/06 08:30:03;;;;;;;;;;;;;;;24.04;67.20;95517.31;5136890;27;1096;-52
2023/06/06 08:32:30;;;;;;;;;;;;;;;24.24;67.47;95516.94;5135965;27;1048;-52
2023/06/06 08:34:56;;;;;;;;;;;;;;;24.24;68.09;95514.19;5136715;27;1104;-52
2023/06/06 08:37:22;;;;;;;;;;;;;;;24.59;69.56;95513.38;5136904;27;1988;-52
2023/06/06 08:39:50;;;;;;;;;;;;;;;24.41;68.16;95515.13;5136867;27;1059;-52
2023/06/06 08:42:18;;;;;;;;;;;;;;;24.45;66.98;95515.50;5136701;27;1104;-52
2023/06/06 08:44:45;;;;;;;;;;;;;;;24.58;69.25;95503.50;5136990;27;1031;-52
2023/06/06 08:47:12;;;;;;;;;;;;;;;24.46;67.55;95508.97;5136467;27;1424;-52
2023/06/06 08:49:38;;;;;;;;;;;;;;;24.47;63.58;95507.88;5136534;27;1897;-52
2023/06/06 08:52:07;;;;;;;;;;;;;;;24.55;63.53;95499.38;5136337;27;1012;-53
2023/06/06 08:54:33;;;;;;;;;;;;;;;24.66;63.38;95497.66;5136380;27;1045;-53
2023/06/06 08:57:07;;;;;;;;;;;;;;;24.95;66.45;95493.06;5136407;27;1992;-53
2023/06/06 08:59:40;;;;;;;;;;;;;;;25.13;66.36;95495.59;5136354;27;1061;-53
2023/06/06 09:02:08;;;;;;;;;;;;;;;25.02;68.29;95477.31;5136353;27;1045;-54
2023/06/06 09:04:35;;;;;;;;;;;;;;;25.14;66.52;95474.56;5136264;27;1880;-52
2023/06/06 09:07:04;;;;;;;;;;;;;;;25.23;66.50;95475.00;5134217;27;2816;-51
2023/06/06 09:09:35;;;;;;;;;;;;;;;25.46;69.77;95474.91;5135775;27;1891;-52
2023/06/06 09:12:00;;;;;;;;;;;;;;;25.31;68.77;95459.03;5136352;27;1056;-52
2023/06/06 09:14:27;;;;;;;;;;;;;;;25.20;66.66;95468.09;5136380;27;996;-52
2023/06/06 09:16:53;;;;;;;;;;;;;;;25.32;68.38;95455.22;5135887;27;2040;-51
2023/06/06 09:19:25;;;;;;;;;;;;;;;25.32;65.55;95457.13;5135987;27;1040;-52
2023/06/06 09:21:51;;;;;;;;;;;;;;;25.17;68.33;95457.63;5135843;27;1060;-52
2023/06/06 09:24:17;;;;;;;;;;;;;;;25.16;68.00;95453.25;5135899;27;1850;-52
2023/06/06 09:26:43;;;;;;;;;;;;;;;25.36;68.60;95451.97;5135895;27;1076;-52
2023/06/06 09:29:11;;;;;;;;;;;;;;;25.74;69.45;95445.78;5135992;27;1028;-52
2023/06/06 09:31:38;;;;;;;;;;;;;;;25.83;68.01;95454.41;5136063;27;1024;-52
2023/06/06 09:34:06;;;;;;;;;;;;;;;25.71;66.91;95443.56;5134617;27;2550;-52
2023/06/06 09:36:32;;;;;;;;;;;;;;;25.86;67.42;95443.78;5118672;27;2832;-52
2023/06/06 09:39:05;;;;;;;;;;;;;;;25.92;64.24;95439.25;5115323;28;1041;-51
2023/06/06 09:41:37;;;;;;;;;;;;;;;26.03;66.39;95429.28;5114883;28;1041;-51
2023/06/06 09:44:04;;;;;;;;;;;;;;;26.02;67.33;95433.91;5115234;28;989;-52
2023/06/06 09:46:34;;;;;;;;;;;;;;;25.94;60.87;95426.13;5119376;27;1243;-52
2023/06/06 09:49:00;;;;;;;;;;;;;;;25.92;63.87;95419.25;5135299;27;1048;-51
2023/06/06 09:51:30;;;;;;;;;;;;;;;26.12;65.75;95415.97;5135471;27;1036;-52
2023/06/06 09:53:58;;;;;;;;;;;;;;;26.14;63.93;95425.59;5117402;27;1031;-52
2023/06/06 09:56:25;;;;;;;;;;;;;;;26.15;61.81;95418.22;5135417;27;1909;-51
2023/06/06 09:58:55;;;;;;;;;;;;;;;25.97;62.94;95416.56;5135271;27;1065;-52
2023/06/06 10:01:31;;;;;;;;;;;;;;;26.34;66.76;95413.25;5135132;27;1044;-51
2023/06/06 10:03:57;;;;;;;;;;;;;;;26.24;60.63;95412.03;5135380;27;1063;-52
2023/06/06 10:06:33;;;;;;;;;;;;;;;26.14;61.16;95411.88;5135251;27;932;-52
2023/06/06 10:09:04;;;;;;;;;;;;;;;26.18;60.92;95410.31;5134932;27;1350;-52
2023/06/06 10:11:32;;;;;;;;;;;;;;;26.18;64.28;95402.09;5135193;27;972;-52
2023/06/06 10:13:58;;;;;;;;;;;;;;;26.30;62.47;95393.75;5135008;27;969;-52
2023/06/06 10:16:25;;;;;;;;;;;;;;;26.16;59.86;95386.97;5134738;27;2000;-52
2023/06/06 10:18:52;;;;;;;;;;;;;;;26.19;62.26;95386.47;5135024;27;1317;-52
2023/06/06 10:21:19;;;;;;;;;;;;;;;26.37;61.33;95380.69;5134916;27;1035;-52
2023/06/06 10:23:45;;;;;;;;;;;;;;;26.56;60.10;95383.94;5134922;27;973;-51
2023/06/06 10:26:37;;;;;;;;;;;;;;;26.63;61.18;95376.34;5134687;27;929;-51
2023/06/06 10:29:09;;;;;;;;;;;;;;;26.54;58.23;95375.13;5110937;27;1522;-52
2023/06/06 10:31:35;;;;;;;;;;;;;;;26.53;58.98;95369.91;5134795;27;1217;-52
2023/06/06 10:34:08;;;;;;;;;;;;;;;26.26;61.24;95357.81;5116681;27;980;-52
2023/06/06 10:36:38;;;;;;;;;;;;;;;26.02;61.39;95356.38;5130726;27;2837;-52
2023/06/06 10:39:20;;;;;;;;;;;;;;;26.10;61.76;95359.53;5114000;28;973;-52
2023/06/06 10:42:07;;;;;;;;;;;;;;;26.15;58.43;95353.28;5114152;28;1008;-52
2023/06/06 10:44:37;;;;;;;;;;;;;;;26.03;59.86;95350.66;5113867;28;1302;-52
2023/06/06 10:47:27;;;;;;;;;;;;;;;25.86;62.34;95360.81;5123196;27;1263;-51
2023/06/06 10:50:08;;;;;;;;;;;;;;;26.29;58.53;95357.31;5134601;27;1044;-53
2023/06/06 10:52:43;;;;;;;;;;;;;;;26.52;60.34;95340.81;5134539;27;1052;-52
2023/06/06 10:55:16;;;;;;;;;;;;;;;26.73;58.05;95336.41;5133931;27;1040;-52
2023/06/06 10:57:52;;;;;;;;;;;;;;;26.93;55.08;95325.66;5134169;27;1901;-54
2023/06/06 11:00:25;;;;;;;;;;;;;;;27.06;59.11;95327.16;5116297;28;957;-52
2023/06/06 11:03:00;;;;;;;;;;;;;;;27.12;58.39;95317.84;5134466;28;1016;-53
2023/06/06 11:05:26;;;;;;;;;;;;;;;27.13;56.47;95324.16;5134141;28;1049;-52
2023/06/06 11:07:57;;;;;;;;;;;;;;;26.90;53.61;95328.94;5134083;28;1527;-53
2023/06/06 11:10:23;;;;;;;;;;;;;;;26.55;55.79;95307.41;5133926;28;1087;-53
2023/06/06 11:12:50;;;;;;;;;;;;;;;26.26;56.94;95310.41;5134229;28;1061;-53
2023/06/06 11:15:45;;;;;;;;;;;;;;;26.07;58.80;95313.44;5134277;28;1036;-53
2023/06/06 11:18:11;;;;;;;;;;;;;;;25.79;59.28;95308.94;5120691;28;1333;-52
2023/06/06 11:20:38;;;;;;;;;;;;;;;25.77;59.21;95302.88;5134353;28;1013;-52
2023/06/06 11:23:05;;;;;;;;;;;;;;;25.80;60.60;95301.53;5116040;28;1234;-53
2023/06/06 11:25:32;;;;;;;;;;;;;;;25.79;61.42;95297.16;5133855;28;1109;-52
2023/06/06 11:27:58;;;;;;;;;;;;;;;25.67;58.71;95294.53;5134222;28;1048;-53
2023/06/06 11:30:29;;;;;;;;;;;;;;;25.57;58.62;95299.84;5134076;28;1004;-52
2023/06/06 11:32:55;;;;;;;;;;;;;;;25.82;58.29;95294.75;5134143;28;1128;-52
2023/06/06 11:35:23;;;;;;;;;;;;;;;25.93;57.23;95303.13;5134122;28;1085;-53
2023/06/06 11:37:50;;;;;;;;;;;;;;;26.22;55.91;95298.28;5133785;28;1518;-53
2023/06/06 11:40:16;;;;;;;;;;;;;;;26.25;55.68;95295.84;5134086;28;1083;-52
2023/06/06 11:42:43;;;;;;;;;;;;;;;26.29;56.18;95299.75;5132732;28;2483;-52
2023/06/06 11:45:13;;;;;;;;;;;;;;;26.26;56.57;95304.91;5133147;28;913;-52
2023/06/06 11:47:39;;;;;;;;;;;;;;;26.09;54.73;95299.50;5133769;28;1235;-52
2023/06/06 11:50:05;;;;;;;;;;;;;;;26.03;55.09;95295.06;5134099;28;977;-52
2023/06/06 11:52:31;;;;;;;;;;;;;;;25.94;57.16;95291.09;5133950;28;1132;-54
2023/06/06 11:55:04;;;;;;;;;;;;;;;26.01;57.72;95292.56;5115853;28;969;-52
2023/06/06 11:57:34;;;;;;;;;;;;;;;26.13;59.51;95284.19;5133796;28;1914;-53
2023/06/06 12:00:07;;;;;;;;;;;;;;;26.22;59.71;95276.38;5133774;28;1056;-53
2023/06/06 12:02:33;;;;;;;;;;;;;;;26.66;58.20;95277.13;5133824;28;1051;-52
2023/06/06 12:05:00;;;;;;;;;;;;;;;26.96;58.47;95275.75;5133708;28;980;-52
2023/06/06 12:07:27;;;;;;;;;;;;;;;27.23;60.45;95270.19;5134068;27;1600;-51
2023/06/06 12:09:54;;;;;;;;;;;;;;;27.20;56.32;95267.16;5137273;27;1246;-51
2023/06/06 12:12:20;;;;;;;;;;;;;;;27.18;53.17;95269.34;5137125;27;1096;-51
2023/06/06 12:14:55;;;;;;;;;;;;;;;27.16;55.37;95255.88;5137693;27;1129;-51
2023/06/06 12:17:23;;;;;;;;;;;;;;;27.18;53.47;95255.63;5137125;27;1918;-50
2023/06/06 12:19:52;;;;;;;;;;;;;;;27.35;53.90;95256.31;5137214;27;1115;-51
2023/06/06 12:22:47;;;;;;;;;;;;;;;26.85;50.88;95274.00;5137082;27;1057;-51
2023/06/06 12:25:22;;;;;;;;;;;;;;;26.25;52.66;95267.63;5122498;27;2978;-51
2023/06/06 12:27:48;;;;;;;;;;;;;;;26.02;57.81;95268.72;5116283;28;1019;-51
2023/06/06 12:30:27;;;;;;;;;;;;;;;25.78;59.11;95276.31;5116387;28;1099;-50
2023/06/06 12:32:53;;;;;;;;;;;;;;;25.36;65.66;95277.66;5116658;28;1044;-52
2023/06/06 12:35:21;;;;;;;;;;;;;;;24.89;70.71;95272.50;5116194;28;1044;-52
2023/06/06 12:37:47;;;;;;;;;;;;;;;24.49;75.33;95266.09;5129433;27;2877;-52
2023/06/06 12:40:20;;;;;;;;;;;;;;;24.23;76.99;95262.03;5136802;27;1040;-52
2023/06/06 12:42:55;;;;;;;;;;;;;;;23.88;79.22;95253.97;5136732;27;1049;-52
2023/06/06 12:45:22;;;;;;;;;;;;;;;23.84;80.64;95267.28;5132481;27;2919;-52
2023/06/06 12:47:50;;;;;;;;;;;;;;;23.76;80.40;95260.25;5131556;27;1254;-52
2023/06/06 12:50:20;;;;;;;;;;;;;;;23.66;83.19;95265.53;5136536;27;1149;-52
2023/06/06 12:52:47;;;;;;;;;;;;;;;23.68;82.65;95270.75;5136636;27;988;-52
2023/06/06 12:55:13;;;;;;;;;;;;;;;23.74;81.72;95264.31;5136396;27;1120;-52
2023/06/06 12:57:39;;;;;;;;;;;;;;;23.75;80.31;95260.50;5129437;27;2846;-52